createdAt,value
2018-09-02T00:00:20.225Z,3.90
2018-09-02T00:00:40.154Z,4.10
2018-09-02T00:01:00.537Z,4.30
2018-09-02T00:01:21.245Z,4.20
2018-09-02T00:01:41.363Z,3.70
2018-09-02T00:02:01.316Z,3.50
2018-09-02T00:02:22.012Z,5.00
2018-09-02T00:02:41.879Z,7.20
2018-09-02T00:03:02.466Z,8.30
2018-09-02T00:03:22.630Z,7.30
2018-09-02T00:03:42.484Z,6.10
2018-09-02T00:04:23.134Z,4.50
2018-09-02T00:04:42.993Z,4.60
2018-09-02T00:05:03.649Z,5.40
2018-09-02T00:05:23.793Z,5.10
2018-09-02T00:05:43.673Z,4.10
2018-09-02T00:06:04.400Z,3.50
2018-09-02T00:06:24.352Z,3.30
2018-09-02T00:06:44.697Z,3.60
2018-09-02T00:07:05.411Z,4.20
2018-09-02T00:07:25.266Z,5.00
2018-09-02T00:07:45.614Z,4.30
2018-09-02T00:08:06.382Z,3.50
2018-09-02T00:08:26.452Z,3.80
2018-09-02T00:08:46.398Z,4.80
2018-09-02T00:09:07.211Z,5.60
2018-09-02T00:09:27.084Z,5.70
2018-09-02T00:09:47.437Z,4.60
2018-09-02T00:10:08.077Z,3.80
2018-09-02T00:10:27.933Z,3.80
2018-09-02T00:10:48.591Z,5.10
2018-09-02T00:11:08.443Z,6.40
2018-09-02T00:11:28.924Z,6.20
2018-09-02T00:11:49.629Z,4.80
2018-09-02T00:12:09.683Z,3.20
2018-09-02T00:12:29.604Z,3.30
2018-09-02T00:12:50.392Z,3.60
2018-09-02T00:13:10.261Z,4.20
2018-09-02T00:13:30.629Z,4.60
2018-09-02T00:13:51.339Z,4.80
2018-09-02T00:14:11.283Z,5.70
2018-09-02T00:14:31.630Z,5.00
2018-09-02T00:14:52.317Z,4.60
2018-09-02T00:15:12.419Z,3.30
2018-09-02T00:15:32.505Z,4.70
2018-09-02T00:15:52.655Z,5.60
2018-09-02T00:16:12.512Z,6.00
2018-09-02T00:16:32.891Z,4.90
2018-09-02T00:16:53.544Z,3.80
2018-09-02T00:17:13.448Z,3.20
2018-09-02T00:17:34.197Z,4.10
2018-09-02T00:17:54.157Z,6.20
2018-09-02T00:18:14.523Z,6.50
2018-09-02T00:18:35.233Z,5.40
2018-09-02T00:18:55.086Z,4.80
2018-09-02T00:19:15.449Z,5.20
2018-09-02T00:19:36.154Z,5.80
2018-09-02T00:19:56.050Z,5.00
2018-09-02T00:20:16.734Z,5.50
2018-09-02T00:20:37.028Z,5.20
2018-09-02T00:20:56.788Z,5.80
2018-09-02T00:21:17.177Z,4.90
2018-09-02T00:21:37.836Z,5.00
2018-09-02T00:21:57.727Z,4.90
2018-09-02T00:22:18.200Z,4.50
2018-09-02T00:22:38.846Z,4.90
2018-09-02T00:22:58.774Z,4.00
2018-09-02T00:23:19.463Z,4.70
2018-09-02T00:23:39.463Z,3.30
2018-09-02T00:23:59.848Z,3.90
2018-09-02T00:24:20.593Z,3.70
2018-09-02T00:24:40.452Z,4.20
2018-09-02T00:25:00.958Z,3.80
2018-09-02T00:25:21.143Z,3.50
2018-09-02T00:25:41.015Z,4.20
2018-09-02T00:26:01.646Z,4.70
2018-09-02T00:26:21.813Z,5.10
2018-09-02T00:26:41.670Z,4.60
2018-09-02T00:27:02.063Z,4.30
2018-09-02T00:27:22.734Z,4.40
2018-09-02T00:27:42.588Z,5.30
2018-09-02T00:28:03.007Z,5.30
2018-09-02T00:28:23.668Z,5.20
2018-09-02T00:28:43.533Z,6.80
2018-09-02T00:29:04.328Z,6.90
2018-09-02T00:29:24.527Z,7.10
2018-09-02T00:29:44.383Z,4.10
2018-09-02T00:30:05.141Z,4.10
2018-09-02T00:30:25.044Z,5.60
2018-09-02T00:30:45.397Z,5.70
2018-09-02T00:31:06.125Z,5.20
2018-09-02T00:31:26.009Z,3.30
2018-09-02T00:31:46.364Z,5.20
2018-09-02T00:32:07.073Z,5.70
2018-09-02T00:32:26.944Z,6.00
2018-09-02T00:32:47.305Z,4.50
2018-09-02T00:33:07.852Z,6.60
2018-09-02T00:33:28.403Z,7.00
2018-09-02T00:33:48.527Z,6.80
2018-09-02T00:34:08.330Z,4.10
2018-09-02T00:34:28.711Z,3.70
2018-09-02T00:34:49.390Z,4.60
2018-09-02T00:35:09.348Z,4.80
2018-09-02T00:35:29.690Z,3.90
2018-09-02T00:35:50.383Z,4.30
2018-09-02T00:36:10.251Z,5.40
2018-09-02T00:36:30.680Z,6.60
2018-09-02T00:36:51.354Z,7.00
2018-09-02T00:37:11.225Z,6.50
2018-09-02T00:37:31.701Z,5.60
2018-09-02T00:37:52.373Z,5.10
2018-09-02T00:38:12.232Z,4.80
2018-09-02T00:38:32.578Z,4.60
2018-09-02T00:38:53.231Z,4.00
2018-09-02T00:39:13.239Z,3.10
2018-09-02T00:39:33.262Z,3.20
2018-09-02T00:39:53.404Z,3.10
2018-09-02T00:40:13.487Z,3.60
2018-09-02T00:40:33.650Z,3.50
2018-09-02T00:40:53.786Z,4.10
2018-09-02T00:41:13.648Z,4.90
2018-09-02T00:41:34.353Z,5.50
2018-09-02T00:41:54.325Z,4.80
2018-09-02T00:42:14.674Z,4.00
2018-09-02T00:42:35.393Z,4.00
2018-09-02T00:42:55.274Z,4.00
2018-09-02T00:43:15.803Z,4.60
2018-09-02T00:43:36.009Z,4.90
2018-09-02T00:43:55.867Z,5.70
2018-09-02T00:44:16.455Z,5.40
2018-09-02T00:44:36.619Z,4.50
2018-09-02T00:44:56.535Z,3.70
2018-09-02T00:45:16.998Z,4.00
2018-09-02T00:45:37.650Z,6.00
2018-09-02T00:45:57.494Z,6.20
2018-09-02T00:46:17.851Z,5.10
2018-09-02T00:46:38.510Z,4.80
2018-09-02T00:46:58.375Z,4.50
2018-09-02T00:47:19.050Z,4.20
2018-09-02T00:47:39.206Z,3.60
2018-09-02T00:47:59.064Z,4.30
2018-09-02T00:48:19.798Z,4.50
2018-09-02T00:48:39.762Z,5.00
2018-09-02T00:49:00.129Z,4.60
2018-09-02T00:49:20.861Z,4.30
2018-09-02T00:49:40.724Z,4.40
2018-09-02T00:50:01.105Z,5.90
2018-09-02T00:50:21.817Z,5.60
2018-09-02T00:50:41.707Z,5.10
2018-09-02T00:51:02.099Z,5.40
2018-09-02T00:51:22.702Z,5.80
2018-09-02T00:51:42.562Z,7.30
2018-09-02T00:52:03.261Z,5.20
2018-09-02T00:52:23.412Z,6.30
2018-09-02T00:52:43.272Z,6.00
2018-09-02T00:53:03.959Z,6.40
2018-09-02T00:53:24.125Z,6.20
2018-09-02T00:53:44.003Z,5.00
2018-09-02T00:54:04.688Z,5.30
2018-09-02T00:54:24.529Z,4.80
2018-09-02T00:54:44.972Z,5.00
2018-09-02T00:55:05.668Z,4.30
2018-09-02T00:55:25.531Z,3.70
2018-09-02T00:55:45.891Z,3.00
2018-09-02T00:56:06.596Z,3.50
2018-09-02T00:56:26.447Z,3.90
2018-09-02T00:56:46.870Z,4.40
2018-09-02T00:57:07.484Z,5.00
2018-09-02T00:57:27.406Z,5.80
2018-09-02T00:57:47.768Z,6.80
2018-09-02T00:58:08.382Z,6.70
2018-09-02T00:58:28.237Z,4.30
2018-09-02T00:58:48.913Z,4.10
2018-09-02T00:59:09.269Z,4.00
2018-09-02T00:59:29.129Z,4.80
2018-09-02T00:59:49.812Z,5.50
2018-09-02T01:00:09.744Z,4.90
2018-09-02T01:00:30.099Z,5.10
2018-09-02T01:00:50.810Z,5.50
2018-09-02T01:01:10.665Z,5.70
2018-09-02T01:01:31.049Z,5.10
2018-09-02T01:01:51.765Z,3.30
2018-09-02T01:02:11.640Z,4.20
2018-09-02T01:02:31.997Z,4.60
2018-09-02T01:03:12.358Z,3.60
2018-09-02T01:03:32.729Z,2.90
2018-09-02T01:03:53.387Z,3.60
2018-09-02T01:04:13.260Z,5.10
2018-09-02T01:04:33.992Z,5.30
2018-09-02T01:04:54.160Z,4.90
2018-09-02T01:05:14.282Z,4.70
2018-09-02T01:05:34.451Z,5.40
2018-09-02T01:05:54.712Z,4.80
2018-09-02T01:06:14.568Z,6.00
2018-09-02T01:06:35.267Z,6.10
2018-09-02T01:06:55.352Z,6.90
2018-09-02T01:07:15.212Z,4.40
2018-09-02T01:07:35.958Z,3.70
2018-09-02T01:07:55.823Z,3.90
2018-09-02T01:08:16.237Z,4.80
2018-09-02T01:08:36.942Z,5.10
2018-09-02T01:08:56.823Z,5.20
2018-09-02T01:09:17.200Z,3.90
2018-09-02T01:09:37.843Z,3.80
2018-09-02T01:09:57.705Z,3.70
2018-09-02T01:10:18.356Z,4.00
2018-09-02T01:10:38.504Z,5.10
2018-09-02T01:10:58.429Z,4.90
2018-09-02T01:11:19.151Z,6.40
2018-09-02T01:11:39.202Z,6.50
2018-09-02T01:11:59.070Z,6.30
2018-09-02T01:12:19.780Z,5.10
2018-09-02T01:12:39.677Z,4.00
2018-09-02T01:13:00.033Z,3.80
2018-09-02T01:13:20.791Z,3.90
2018-09-02T01:13:40.701Z,5.10
2018-09-02T01:14:01.078Z,5.80
2018-09-02T01:14:21.818Z,5.90
2018-09-02T01:14:41.757Z,4.80
2018-09-02T01:15:02.419Z,4.60
2018-09-02T01:15:22.563Z,5.20
2018-09-02T01:15:42.422Z,6.10
2018-09-02T01:16:03.070Z,7.30
2018-09-02T01:16:23.226Z,7.20
2018-09-02T01:16:43.095Z,6.40
2018-09-02T01:17:03.770Z,4.10
2018-09-02T01:17:23.924Z,4.00
2018-09-02T01:17:43.783Z,4.10
2018-09-02T01:18:04.459Z,4.90
2018-09-02T01:18:24.503Z,4.60
2018-09-02T01:18:44.366Z,4.20
2018-09-02T01:19:05.110Z,4.40
2018-09-02T01:19:24.954Z,6.50
2018-09-02T01:19:45.338Z,6.90
2018-09-02T01:20:06.055Z,6.20
2018-09-02T01:20:25.937Z,4.90
2018-09-02T01:20:46.312Z,4.90
2018-09-02T01:21:06.963Z,4.20
2018-09-02T01:21:26.936Z,5.40
2018-09-02T01:21:47.293Z,5.00
2018-09-02T01:22:07.959Z,5.60
2018-09-02T01:22:27.816Z,4.30
2018-09-02T01:22:48.316Z,4.40
2018-09-02T01:23:08.316Z,4.80
2018-09-02T01:23:28.662Z,4.90
2018-09-02T01:23:49.411Z,4.50
2018-09-02T01:24:09.267Z,5.10
2018-09-02T01:24:29.657Z,5.00
2018-09-02T01:24:50.341Z,5.20
2018-09-02T01:25:10.207Z,3.90
2018-09-02T01:25:30.562Z,4.70
2018-09-02T01:25:51.233Z,5.30
2018-09-02T01:26:11.089Z,5.50
2018-09-02T01:26:31.439Z,4.70
2018-09-02T01:26:52.131Z,5.00
2018-09-02T01:27:11.995Z,5.50
2018-09-02T01:27:32.373Z,6.10
2018-09-02T01:27:53.026Z,5.50
2018-09-02T01:28:12.896Z,5.50
2018-09-02T01:28:33.532Z,4.40
2018-09-02T01:28:53.670Z,5.20
2018-09-02T01:29:13.525Z,4.60
2018-09-02T01:29:34.228Z,5.70
2018-09-02T01:29:54.234Z,4.60
2018-09-02T01:30:14.131Z,4.20
2018-09-02T01:30:34.851Z,4.00
2018-09-02T01:30:54.707Z,5.60
2018-09-02T01:31:15.074Z,6.30
2018-09-02T01:31:35.781Z,5.50
2018-09-02T01:31:55.642Z,4.80
2018-09-02T01:32:16.004Z,3.90
2018-09-02T01:32:36.681Z,4.50
2018-09-02T01:32:56.537Z,3.90
2018-09-02T01:33:16.920Z,5.10
2018-09-02T01:33:37.563Z,4.40
2018-09-02T01:33:57.426Z,4.30
2018-09-02T01:34:17.790Z,4.60
2018-09-02T01:34:38.451Z,5.10
2018-09-02T01:34:58.307Z,6.50
2018-09-02T01:35:19.028Z,6.30
2018-09-02T01:35:39.156Z,6.60
2018-09-02T01:35:59.021Z,4.80
2018-09-02T01:36:19.707Z,4.10
2018-09-02T01:36:39.580Z,3.70
2018-09-02T01:36:59.928Z,6.10
2018-09-02T01:37:20.675Z,6.00
2018-09-02T01:37:40.594Z,5.90
2018-09-02T01:38:00.941Z,4.60
2018-09-02T01:38:21.621Z,5.30
2018-09-02T01:38:41.531Z,6.10
2018-09-02T01:39:01.975Z,6.80
2018-09-02T01:39:22.619Z,7.00
2018-09-02T01:39:42.483Z,6.00
2018-09-02T01:40:03.220Z,4.10
2018-09-02T01:40:23.391Z,4.90
2018-09-02T01:40:43.309Z,4.90
2018-09-02T01:41:03.960Z,5.10
2018-09-02T01:41:23.964Z,3.80
2018-09-02T01:41:43.817Z,4.70
2018-09-02T01:42:04.584Z,4.40
2018-09-02T01:42:24.430Z,4.50
2018-09-02T01:42:44.792Z,4.70
2018-09-02T01:43:05.544Z,4.70
2018-09-02T01:43:25.411Z,3.90
2018-09-02T01:43:45.787Z,4.50
2018-09-02T01:44:06.457Z,5.20
2018-09-02T01:44:26.323Z,5.70
2018-09-02T01:44:46.676Z,5.40
2018-09-02T01:45:27.030Z,7.10
2018-09-02T01:45:47.382Z,6.30
2018-09-02T01:46:07.914Z,5.90
2018-09-02T01:46:27.787Z,4.30
2018-09-02T01:46:48.345Z,4.70
2018-09-02T01:47:08.256Z,5.40
2018-09-02T01:47:49.018Z,6.40
2018-09-02T01:48:09.269Z,6.60
2018-09-02T01:48:29.218Z,6.20
2018-09-02T01:48:49.974Z,6.30
2018-09-02T01:49:09.888Z,5.20
2018-09-02T01:49:50.608Z,4.60
2018-09-02T01:50:10.484Z,4.30
2018-09-02T01:50:30.880Z,6.00
2018-09-02T01:50:51.535Z,6.60
2018-09-02T01:51:11.387Z,6.10
2018-09-02T01:51:31.768Z,4.40
2018-09-02T01:51:52.445Z,4.10
2018-09-02T01:52:12.301Z,4.40
2018-09-02T01:52:32.667Z,6.20
2018-09-02T01:52:53.323Z,6.30
2018-09-02T01:53:13.237Z,6.40
2018-09-02T01:53:33.930Z,4.80
2018-09-02T01:53:54.075Z,4.20
2018-09-02T01:54:13.938Z,3.20
2018-09-02T01:54:34.690Z,3.00
2018-09-02T01:54:54.618Z,3.40
2018-09-02T01:55:15.293Z,4.10
2018-09-02T01:55:35.542Z,3.90
2018-09-02T01:55:55.407Z,3.90
2018-09-02T01:56:15.771Z,3.60
2018-09-02T01:56:36.499Z,4.20
2018-09-02T01:56:56.365Z,4.70
2018-09-02T01:57:16.737Z,5.10
2018-09-02T01:57:37.406Z,5.00
2018-09-02T01:57:57.287Z,4.80
2018-09-02T01:58:17.652Z,5.70
2018-09-02T01:58:38.302Z,6.60
2018-09-02T01:58:58.151Z,6.50
2018-09-02T01:59:18.854Z,5.00
2018-09-02T01:59:39.015Z,4.80
2018-09-02T01:59:58.846Z,5.20
2018-09-02T02:00:19.523Z,5.70
2018-09-02T02:00:39.619Z,5.60
2018-09-02T02:00:59.474Z,5.70
2018-09-02T02:01:20.225Z,5.30
2018-09-02T02:01:40.082Z,5.10
2018-09-02T02:02:00.449Z,4.10
2018-09-02T02:02:21.121Z,5.40
2018-09-02T02:02:41.059Z,6.70
2018-09-02T02:03:01.419Z,6.20
2018-09-02T02:03:22.100Z,4.40
2018-09-02T02:03:41.964Z,3.30
2018-09-02T02:04:02.459Z,4.20
2018-09-02T02:04:23.092Z,4.90
2018-09-02T02:04:42.956Z,5.20
2018-09-02T02:05:03.564Z,5.00
2018-09-02T02:05:23.712Z,4.80
2018-09-02T02:05:43.569Z,4.70
2018-09-02T02:06:04.289Z,4.00
2018-09-02T02:06:24.389Z,4.20
2018-09-02T02:06:44.251Z,6.70
2018-09-02T02:07:05.008Z,7.50
2018-09-02T02:07:24.878Z,7.50
2018-09-02T02:07:45.244Z,6.10
2018-09-02T02:08:06.019Z,5.60
2018-09-02T02:08:25.902Z,5.00
2018-09-02T02:08:46.252Z,3.80
2018-09-02T02:09:07.021Z,4.00
2018-09-02T02:09:27.018Z,5.10
2018-09-02T02:09:47.370Z,5.10
2018-09-02T02:10:08.020Z,5.60
2018-09-02T02:10:27.945Z,6.10
2018-09-02T02:10:48.528Z,5.40
2018-09-02T02:11:28.406Z,4.70
2018-09-02T02:11:49.072Z,4.90
2018-09-02T02:12:09.130Z,6.10
2018-09-02T02:12:29.011Z,6.00
2018-09-02T02:12:49.692Z,6.50
2018-09-02T02:13:09.591Z,5.70
2018-09-02T02:13:29.985Z,4.60
2018-09-02T02:13:50.704Z,3.90
2018-09-02T02:14:10.552Z,7.50
2018-09-02T02:14:30.908Z,9.40
2018-09-02T02:14:51.564Z,7.20
2018-09-02T02:15:11.485Z,4.60
2018-09-02T02:15:31.894Z,3.50
2018-09-02T02:15:52.549Z,4.60
2018-09-02T02:16:12.427Z,5.00
2018-09-02T02:16:32.796Z,6.20
2018-09-02T02:16:53.499Z,5.90
2018-09-02T02:17:13.375Z,6.40
2018-09-02T02:17:34.133Z,5.30
2018-09-02T02:17:54.305Z,4.80
2018-09-02T02:18:14.173Z,3.40
2018-09-02T02:18:34.947Z,3.50
2018-09-02T02:18:54.795Z,3.50
2018-09-02T02:19:15.167Z,3.80
2018-09-02T02:19:35.888Z,4.20
2018-09-02T02:19:55.751Z,5.30
2018-09-02T02:20:16.432Z,5.60
2018-09-02T02:20:36.392Z,5.60
2018-09-02T02:20:56.802Z,5.10
2018-09-02T02:21:17.165Z,5.20
2018-09-02T02:21:37.801Z,4.90
2018-09-02T02:21:57.666Z,4.30
2018-09-02T02:22:18.135Z,4.20
2018-09-02T02:22:38.792Z,6.30
2018-09-02T02:22:58.801Z,6.30
2018-09-02T02:23:18.995Z,6.40
2018-09-02T02:23:39.252Z,4.00
2018-09-02T02:23:59.105Z,4.20
2018-09-02T02:24:19.828Z,3.60
2018-09-02T02:24:39.688Z,6.40
2018-09-02T02:25:00.081Z,5.60
2018-09-02T02:25:20.841Z,5.90
2018-09-02T02:25:40.719Z,4.60
2018-09-02T02:26:01.147Z,5.10
2018-09-02T02:26:21.870Z,5.00
2018-09-02T02:26:41.769Z,4.80
2018-09-02T02:27:02.412Z,5.60
2018-09-02T02:27:22.601Z,4.80
2018-09-02T02:27:42.496Z,4.70
2018-09-02T02:28:03.165Z,4.30
2018-09-02T02:28:23.319Z,4.60
2018-09-02T02:28:43.181Z,4.80
2018-09-02T02:29:03.905Z,5.30
2018-09-02T02:29:24.027Z,4.90
2018-09-02T02:29:43.896Z,3.70
2018-09-02T02:30:04.644Z,2.60
2018-09-02T02:30:24.804Z,2.60
2018-09-02T02:30:44.742Z,3.60
2018-09-02T02:31:05.460Z,4.90
2018-09-02T02:31:25.352Z,5.40
2018-09-02T02:31:45.709Z,5.40
2018-09-02T02:32:06.426Z,5.00
2018-09-02T02:32:26.339Z,4.40
2018-09-02T02:32:46.736Z,5.40
2018-09-02T02:33:07.392Z,5.10
2018-09-02T02:33:27.251Z,6.30
2018-09-02T02:33:47.647Z,4.70
2018-09-02T02:34:08.339Z,5.60
2018-09-02T02:34:28.182Z,4.90
2018-09-02T02:34:48.882Z,5.40
2018-09-02T02:35:09.051Z,4.70
2018-09-02T02:35:28.933Z,5.50
2018-09-02T02:35:49.685Z,7.10
2018-09-02T02:36:09.559Z,6.70
2018-09-02T02:36:29.936Z,5.60
2018-09-02T02:36:50.648Z,3.80
2018-09-02T02:37:10.616Z,5.10
2018-09-02T02:37:30.974Z,5.00
2018-09-02T02:37:51.686Z,4.70
2018-09-02T02:38:11.624Z,3.70
2018-09-02T02:38:31.987Z,4.50
2018-09-02T02:38:52.643Z,4.30
2018-09-02T02:39:32.515Z,6.40
2018-09-02T02:39:53.172Z,7.70
2018-09-02T02:40:13.042Z,5.50
2018-09-02T02:40:33.697Z,4.70
2018-09-02T02:40:53.878Z,3.90
2018-09-02T02:41:13.751Z,4.40
2018-09-02T02:41:54.535Z,4.50
2018-09-02T02:42:14.384Z,4.70
2018-09-02T02:42:35.111Z,5.30
2018-09-02T02:42:54.965Z,6.90
2018-09-02T02:43:15.374Z,6.30
2018-09-02T02:43:36.043Z,5.50
2018-09-02T02:43:55.923Z,3.60
2018-09-02T02:44:16.307Z,3.20
2018-09-02T02:44:37.050Z,3.50
2018-09-02T02:44:56.910Z,4.10
2018-09-02T02:45:17.317Z,4.50
2018-09-02T02:45:37.967Z,4.20
2018-09-02T02:45:57.852Z,3.30
2018-09-02T02:46:18.479Z,3.10
2018-09-02T02:46:38.653Z,4.30
2018-09-02T02:46:58.509Z,5.60
2018-09-02T02:47:19.229Z,6.00
2018-09-02T02:47:39.217Z,4.30
2018-09-02T02:47:59.568Z,3.10
2018-09-02T02:48:20.310Z,3.60
2018-09-02T02:48:40.182Z,4.50
2018-09-02T02:49:00.544Z,6.10
2018-09-02T02:49:21.289Z,5.70
2018-09-02T02:49:41.158Z,5.90
2018-09-02T02:50:01.613Z,4.90
2018-09-02T02:50:22.273Z,5.20
2018-09-02T02:50:42.201Z,5.20
2018-09-02T02:51:02.832Z,5.90
2018-09-02T02:51:22.986Z,4.60
2018-09-02T02:51:42.909Z,3.60
2018-09-02T02:52:03.607Z,3.00
2018-09-02T02:52:23.756Z,4.10
2018-09-02T02:52:43.692Z,4.50
2018-09-02T02:53:04.381Z,4.70
2018-09-02T02:53:24.501Z,4.70
2018-09-02T02:53:44.357Z,5.00
2018-09-02T02:54:05.056Z,5.00
2018-09-02T02:54:24.961Z,4.10
2018-09-02T02:54:45.334Z,5.20
2018-09-02T02:55:05.987Z,4.80
2018-09-02T02:55:25.839Z,5.20
2018-09-02T02:55:46.220Z,4.00
2018-09-02T02:56:26.595Z,7.10
2018-09-02T02:56:46.947Z,6.70
2018-09-02T02:57:07.624Z,4.50
2018-09-02T02:57:27.503Z,4.30
2018-09-02T02:57:47.986Z,4.50
2018-09-02T02:58:08.381Z,4.20
2018-09-02T02:58:28.760Z,3.60
2018-09-02T02:58:49.525Z,4.10
2018-09-02T02:59:09.661Z,5.00
2018-09-02T02:59:29.524Z,4.90
2018-09-02T02:59:50.236Z,4.00
2018-09-02T03:00:10.086Z,4.10
2018-09-02T03:00:30.432Z,3.60
2018-09-02T03:00:51.145Z,3.90
2018-09-02T03:01:11.012Z,4.00
2018-09-02T03:01:31.370Z,4.20
2018-09-02T03:01:52.067Z,5.10
2018-09-02T03:02:11.921Z,4.80
2018-09-02T03:02:32.277Z,5.70
2018-09-02T03:02:52.945Z,4.90
2018-09-02T03:03:12.803Z,5.40
2018-09-02T03:03:33.350Z,4.90
2018-09-02T03:03:53.501Z,6.10
2018-09-02T03:04:13.361Z,5.20
2018-09-02T03:04:34.052Z,5.30
2018-09-02T03:04:54.129Z,4.40
2018-09-02T03:05:14.297Z,4.80
2018-09-02T03:05:34.477Z,4.70
2018-09-02T03:05:54.417Z,4.70
2018-09-02T03:06:14.785Z,4.50
2018-09-02T03:06:35.543Z,4.40
2018-09-02T03:06:55.453Z,4.60
2018-09-02T03:07:15.811Z,4.60
2018-09-02T03:07:36.491Z,3.90
2018-09-02T03:07:56.354Z,3.60
2018-09-02T03:08:16.699Z,3.60
2018-09-02T03:08:37.379Z,4.10
2018-09-02T03:08:57.217Z,5.00
2018-09-02T03:09:17.853Z,5.80
2018-09-02T03:09:37.699Z,6.30
2018-09-02T03:09:58.064Z,5.60
2018-09-02T03:10:18.773Z,4.70
2018-09-02T03:10:38.932Z,6.80
2018-09-02T03:10:58.782Z,8.10
2018-09-02T03:11:19.564Z,7.70
2018-09-02T03:11:39.575Z,5.40
2018-09-02T03:11:59.447Z,3.40
2018-09-02T03:12:20.211Z,5.10
2018-09-02T03:12:40.069Z,4.90
2018-09-02T03:13:00.447Z,5.80
2018-09-02T03:13:21.166Z,7.40
2018-09-02T03:13:41.020Z,7.70
2018-09-02T03:14:01.373Z,7.30
2018-09-02T03:14:22.051Z,5.10
2018-09-02T03:14:42.075Z,5.00
2018-09-02T03:15:02.195Z,4.50
2018-09-02T03:15:22.390Z,5.80
2018-09-02T03:15:42.246Z,6.30
2018-09-02T03:16:02.596Z,5.50
2018-09-02T03:16:23.252Z,5.30
2018-09-02T03:16:43.128Z,5.50
2018-09-02T03:17:03.897Z,7.10
2018-09-02T03:17:24.056Z,5.00
2018-09-02T03:17:43.917Z,4.50
2018-09-02T03:18:04.647Z,3.80
2018-09-02T03:18:24.636Z,4.30
2018-09-02T03:18:44.977Z,4.20
2018-09-02T03:19:05.663Z,3.90
2018-09-02T03:19:25.528Z,3.50
2018-09-02T03:19:45.903Z,3.60
2018-09-02T03:20:06.546Z,3.40
2018-09-02T03:20:26.462Z,4.60
2018-09-02T03:20:46.823Z,4.90
2018-09-02T03:21:07.500Z,5.00
2018-09-02T03:21:47.373Z,3.80
2018-09-02T03:22:08.016Z,4.00
2018-09-02T03:22:27.886Z,4.30
2018-09-02T03:22:48.561Z,5.40
2018-09-02T03:23:08.658Z,5.20
2018-09-02T03:23:28.547Z,4.90
2018-09-02T03:23:49.299Z,3.30
2018-09-02T03:24:09.247Z,6.20
2018-09-02T03:24:29.616Z,6.70
2018-09-02T03:24:50.366Z,7.90
2018-09-02T03:25:10.256Z,5.90
2018-09-02T03:25:30.671Z,5.40
2018-09-02T03:25:51.413Z,5.90
2018-09-02T03:26:11.266Z,6.00
2018-09-02T03:26:31.636Z,6.50
2018-09-02T03:26:52.381Z,6.70
2018-09-02T03:27:12.254Z,7.10
2018-09-02T03:27:32.625Z,6.50
2018-09-02T03:27:53.300Z,5.40
2018-09-02T03:28:13.177Z,4.30
2018-09-02T03:28:33.850Z,4.20
2018-09-02T03:28:54.006Z,4.20
2018-09-02T03:29:13.864Z,4.00
2018-09-02T03:29:34.608Z,4.20
2018-09-02T03:29:54.474Z,5.20
2018-09-02T03:30:14.920Z,6.70
2018-09-02T03:30:35.639Z,6.50
2018-09-02T03:30:55.627Z,5.70
2018-09-02T03:31:16.106Z,4.20
2018-09-02T03:31:36.829Z,4.10
2018-09-02T03:31:57.012Z,4.40
2018-09-02T03:32:16.889Z,5.00
2018-09-02T03:32:37.549Z,4.70
2018-09-02T03:32:57.426Z,4.30
2018-09-02T03:33:17.808Z,4.00
2018-09-02T03:33:38.470Z,3.90
2018-09-02T03:33:58.339Z,4.10
2018-09-02T03:34:18.984Z,4.00
2018-09-02T03:34:39.098Z,3.60
2018-09-02T03:34:58.963Z,3.70
2018-09-02T03:35:19.673Z,3.60
2018-09-02T03:35:39.859Z,3.80
2018-09-02T03:35:59.760Z,4.70
2018-09-02T03:36:20.499Z,6.80
2018-09-02T03:36:40.391Z,7.90
2018-09-02T03:37:00.753Z,6.60
2018-09-02T03:37:21.490Z,4.80
2018-09-02T03:37:41.370Z,4.80
2018-09-02T03:38:01.776Z,4.70
2018-09-02T03:38:22.445Z,4.40
2018-09-02T03:38:42.296Z,4.30
2018-09-02T03:39:02.968Z,5.10
2018-09-02T03:39:23.141Z,6.00
2018-09-02T03:39:42.993Z,5.30
2018-09-02T03:40:03.782Z,4.50
2018-09-02T03:40:24.082Z,3.90
2018-09-02T03:40:43.907Z,3.30
2018-09-02T03:41:04.611Z,3.20
2018-09-02T03:41:24.584Z,3.90
2018-09-02T03:41:44.940Z,4.60
2018-09-02T03:42:05.661Z,4.80
2018-09-02T03:42:25.561Z,3.90
2018-09-02T03:42:45.907Z,3.90
2018-09-02T03:43:06.546Z,4.90
2018-09-02T03:43:26.429Z,5.50
2018-09-02T03:43:46.915Z,7.00
2018-09-02T03:44:07.564Z,5.30
2018-09-02T03:44:27.425Z,5.20
2018-09-02T03:44:47.804Z,4.50
2018-09-02T03:45:08.444Z,6.00
2018-09-02T03:45:28.293Z,5.90
2018-09-02T03:45:49.015Z,5.60
2018-09-02T03:46:09.198Z,5.80
2018-09-02T03:46:29.053Z,5.30
2018-09-02T03:46:49.775Z,4.50
2018-09-02T03:47:09.625Z,3.70
2018-09-02T03:47:30.005Z,3.90
2018-09-02T03:47:50.714Z,5.70
2018-09-02T03:48:10.584Z,5.80
2018-09-02T03:48:51.264Z,5.30
2018-09-02T03:49:11.129Z,5.10
2018-09-02T03:49:31.489Z,4.40
2018-09-02T03:49:52.241Z,4.80
2018-09-02T03:50:12.095Z,5.50
2018-09-02T03:50:32.467Z,5.30
2018-09-02T03:50:53.108Z,5.40
2018-09-02T03:51:12.971Z,4.60
2018-09-02T03:51:33.663Z,4.80
2018-09-02T03:51:53.818Z,4.20
2018-09-02T03:52:13.658Z,5.20
2018-09-02T03:52:34.383Z,5.00
2018-09-02T03:53:14.281Z,7.60
2018-09-02T03:53:35.020Z,8.40
2018-09-02T03:53:54.876Z,8.40
2018-09-02T03:54:15.289Z,5.00
2018-09-02T03:54:35.990Z,4.40
2018-09-02T03:54:55.895Z,4.20
2018-09-02T03:55:16.545Z,3.60
2018-09-02T03:55:36.758Z,3.80
2018-09-02T03:55:56.641Z,4.50
2018-09-02T03:56:16.995Z,6.20
2018-09-02T03:56:37.638Z,6.30
2018-09-02T03:56:57.481Z,7.60
2018-09-02T03:57:17.880Z,6.00
2018-09-02T03:57:38.525Z,5.30
2018-09-02T03:57:58.383Z,4.40
2018-09-02T03:58:19.146Z,7.00
2018-09-02T03:58:39.162Z,7.40
2018-09-02T03:58:59.040Z,6.20
2018-09-02T03:59:19.726Z,4.20
2018-09-02T03:59:39.602Z,4.40
2018-09-02T03:59:59.946Z,5.70
2018-09-02T04:00:20.604Z,5.70
2018-09-02T04:00:40.483Z,6.00
2018-09-02T04:01:00.882Z,5.00
2018-09-02T04:01:21.542Z,6.00
2018-09-02T04:01:41.401Z,6.30
2018-09-02T04:02:02.042Z,5.40
2018-09-02T04:02:22.246Z,4.70
2018-09-02T04:02:42.102Z,4.30
2018-09-02T04:03:02.818Z,4.70
2018-09-02T04:03:22.950Z,5.20
2018-09-02T04:03:42.827Z,5.20
2018-09-02T04:04:03.476Z,4.90
2018-09-02T04:04:23.622Z,4.10
2018-09-02T04:04:43.539Z,4.00
2018-09-02T04:05:04.278Z,4.00
2018-09-02T04:05:24.577Z,6.00
2018-09-02T04:05:44.431Z,6.80
2018-09-02T04:06:05.189Z,6.40
2018-09-02T04:06:25.061Z,4.70
2018-09-02T04:06:45.474Z,5.30
2018-09-02T04:07:06.189Z,6.00
2018-09-02T04:07:26.036Z,6.00
2018-09-02T04:07:46.411Z,5.00
2018-09-02T04:08:07.095Z,5.80
2018-09-02T04:08:26.951Z,6.20
2018-09-02T04:08:47.301Z,7.00
2018-09-02T04:09:07.993Z,6.90
2018-09-02T04:09:27.923Z,6.20
2018-09-02T04:09:48.543Z,5.10
2018-09-02T04:10:08.396Z,5.50
2018-09-02T04:10:28.889Z,5.20
2018-09-02T04:10:49.571Z,4.80
2018-09-02T04:11:09.506Z,3.50
2018-09-02T04:11:29.936Z,3.60
2018-09-02T04:11:50.549Z,5.40
2018-09-02T04:12:10.446Z,5.40
2018-09-02T04:12:30.802Z,6.70
2018-09-02T04:12:51.446Z,5.20
2018-09-02T04:13:11.424Z,5.00
2018-09-02T04:13:31.785Z,3.80
2018-09-02T04:13:52.441Z,3.90
2018-09-02T04:14:12.548Z,4.30
2018-09-02T04:14:32.436Z,5.30
2018-09-02T04:14:53.126Z,5.60
2018-09-02T04:15:13.264Z,5.80
2018-09-02T04:15:33.265Z,5.10
2018-09-02T04:15:53.413Z,5.00
2018-09-02T04:16:13.271Z,4.40
2018-09-02T04:16:33.968Z,4.30
2018-09-02T04:16:54.145Z,4.50
2018-09-02T04:17:13.995Z,4.90
2018-09-02T04:17:34.704Z,4.70
2018-09-02T04:17:54.554Z,4.30
2018-09-02T04:18:14.912Z,3.50
2018-09-02T04:18:35.602Z,3.80
2018-09-02T04:18:55.448Z,3.50
2018-09-02T04:19:15.933Z,4.00
2018-09-02T04:19:36.614Z,3.50
2018-09-02T04:19:56.515Z,4.10
2018-09-02T04:20:17.178Z,4.50
2018-09-02T04:20:37.309Z,5.20
2018-09-02T04:20:57.176Z,5.60
2018-09-02T04:21:17.567Z,5.20
2018-09-02T04:21:38.222Z,5.80
2018-09-02T04:21:58.069Z,5.60
2018-09-02T04:22:18.753Z,5.70
2018-09-02T04:22:38.899Z,5.30
2018-09-02T04:22:58.753Z,5.40
2018-09-02T04:23:19.495Z,5.20
2018-09-02T04:23:39.666Z,4.70
2018-09-02T04:23:59.532Z,5.40
2018-09-02T04:24:20.242Z,5.60
2018-09-02T04:24:40.093Z,5.40
2018-09-02T04:25:00.455Z,6.60
2018-09-02T04:25:21.215Z,6.60
2018-09-02T04:25:41.083Z,6.90
2018-09-02T04:26:01.440Z,5.50
2018-09-02T04:26:41.838Z,7.20
2018-09-02T04:27:02.440Z,6.40
2018-09-02T04:27:22.584Z,6.70
2018-09-02T04:27:42.451Z,5.20
2018-09-02T04:28:02.904Z,6.00
2018-09-02T04:28:23.561Z,5.40
2018-09-02T04:28:43.435Z,5.70
2018-09-02T04:29:04.161Z,5.00
2018-09-02T04:29:24.145Z,5.50
2018-09-02T04:29:44.498Z,4.90
2018-09-02T04:30:05.226Z,4.40
2018-09-02T04:30:25.081Z,3.80
2018-09-02T04:30:45.435Z,3.30
2018-09-02T04:31:06.174Z,5.70
2018-09-02T04:31:26.129Z,6.90
2018-09-02T04:31:46.466Z,7.10
2018-09-02T04:32:07.180Z,5.00
2018-09-02T04:32:27.029Z,4.30
2018-09-02T04:32:47.488Z,4.70
2018-09-02T04:33:07.831Z,4.70
2018-09-02T04:33:28.252Z,5.70
2018-09-02T04:34:08.591Z,6.10
2018-09-02T04:34:28.990Z,5.30
2018-09-02T04:34:49.715Z,4.70